createdAt,value
2023-01-22T00:01:20.781Z,2.05
2023-01-22T00:03:49.663Z,2.13
2023-01-22T00:06:16.749Z,2.17
2023-01-22T00:08:43.393Z,2.38
2023-01-22T00:11:10.505Z,2.03
2023-01-22T00:13:37.396Z,2.05
2023-01-22T00:16:04.373Z,2.42
2023-01-22T00:18:31.156Z,2.10
2023-01-22T00:20:57.976Z,2.20
2023-01-22T00:23:25.198Z,2.50
2023-01-22T00:26:03.389Z,2.20
2023-01-22T00:28:30.701Z,2.20
2023-01-22T00:30:59.134Z,2.30
2023-01-22T00:33:25.812Z,2.60
2023-01-22T00:35:52.433Z,2.60
2023-01-22T00:38:19.065Z,2.50
2023-01-22T00:40:45.799Z,2.30
2023-01-22T00:43:12.450Z,2.85
2023-01-22T00:45:39.077Z,2.17
2023-01-22T00:48:06.230Z,2.67
2023-01-22T00:50:33.058Z,2.50
2023-01-22T00:52:59.700Z,2.83
2023-01-22T00:55:26.318Z,4.22
2023-01-22T00:57:53.034Z,2.30
2023-01-22T01:00:20.430Z,2.17
2023-01-22T01:03:05.944Z,1.95
2023-01-22T01:05:32.594Z,1.90
2023-01-22T01:07:59.254Z,2.15
2023-01-22T01:10:25.881Z,2.05
2023-01-22T01:12:52.570Z,2.40
2023-01-22T01:15:19.281Z,2.20
2023-01-22T01:17:46.500Z,2.17
2023-01-22T01:20:13.122Z,1.88
2023-01-22T01:22:39.786Z,2.17
2023-01-22T01:25:06.726Z,2.08
2023-01-22T01:27:33.385Z,2.25
2023-01-22T01:30:00.259Z,2.03
2023-01-22T01:32:26.947Z,2.40
2023-01-22T01:34:53.508Z,2.10
2023-01-22T01:37:20.144Z,2.50
2023-01-22T01:39:48.109Z,2.10
2023-01-22T01:42:14.761Z,1.83
2023-01-22T01:44:42.782Z,1.70
2023-01-22T01:47:27.782Z,1.60
2023-01-22T01:49:54.535Z,1.63
2023-01-22T01:52:21.396Z,1.83
2023-01-22T01:54:51.034Z,1.98
2023-01-22T01:57:28.954Z,2.13
2023-01-22T01:59:56.519Z,1.80
2023-01-22T02:02:23.306Z,1.88
2023-01-22T02:04:51.115Z,1.90
2023-01-22T02:07:18.713Z,2.10
2023-01-22T02:09:45.645Z,1.85
2023-01-22T02:12:12.289Z,1.90
2023-01-22T02:14:41.774Z,1.92
2023-01-22T02:17:11.858Z,2.10
2023-01-22T02:19:42.465Z,1.80
2023-01-22T02:22:23.130Z,2.08
2023-01-22T02:24:50.672Z,2.13
2023-01-22T02:27:17.480Z,2.25
2023-01-22T02:29:44.131Z,2.10
2023-01-22T02:32:10.941Z,2.30
2023-01-22T02:34:37.730Z,2.03
2023-01-22T02:37:04.518Z,2.03
2023-01-22T02:39:31.346Z,1.98
2023-01-22T02:41:58.478Z,2.00
2023-01-22T02:44:25.217Z,1.98
2023-01-22T02:46:51.894Z,1.80
2023-01-22T02:49:19.051Z,2.28
2023-01-22T02:51:45.686Z,2.33
2023-01-22T02:54:12.315Z,2.00
2023-01-22T02:56:39.040Z,1.90
2023-01-22T02:59:06.587Z,1.98
2023-01-22T03:01:33.581Z,2.00
2023-01-22T03:04:12.242Z,1.95
2023-01-22T03:06:41.087Z,1.80
2023-01-22T03:09:08.415Z,1.77
2023-01-22T03:11:36.333Z,1.95
2023-01-22T03:14:21.699Z,2.15
2023-01-22T03:17:07.757Z,2.00
2023-01-22T03:19:53.127Z,1.90
2023-01-22T03:22:22.491Z,2.00
2023-01-22T03:24:51.452Z,1.90
2023-01-22T03:27:19.727Z,1.90
2023-01-22T03:29:46.536Z,2.15
2023-01-22T03:32:13.986Z,1.95
2023-01-22T03:34:41.092Z,2.00
2023-01-22T03:37:08.479Z,1.90
2023-01-22T03:39:35.198Z,1.70
2023-01-22T03:42:01.891Z,2.00
2023-01-22T03:44:28.569Z,1.80
2023-01-22T03:46:55.494Z,2.00
2023-01-22T03:49:22.355Z,1.85
2023-01-22T03:51:49.209Z,1.95
2023-01-22T03:54:16.524Z,1.77
2023-01-22T03:56:43.693Z,1.80
2023-01-22T03:59:11.440Z,2.00
2023-01-22T04:01:38.151Z,1.63
2023-01-22T04:04:05.469Z,1.70
2023-01-22T04:06:32.365Z,1.85
2023-01-22T04:08:59.061Z,1.80
2023-01-22T04:11:25.833Z,1.90
2023-01-22T04:13:55.058Z,1.80
2023-01-22T04:16:21.852Z,1.88
2023-01-22T04:18:48.571Z,2.03
2023-01-22T04:21:15.249Z,1.70
2023-01-22T04:23:41.860Z,2.03
2023-01-22T04:26:08.522Z,2.00
2023-01-22T04:28:35.219Z,1.80
2023-01-22T04:31:02.026Z,1.80
2023-01-22T04:33:28.745Z,2.17
2023-01-22T04:35:56.501Z,2.05
2023-01-22T04:38:23.147Z,2.25
2023-01-22T04:40:50.546Z,2.10
2023-01-22T04:43:17.360Z,2.10
2023-01-22T04:45:44.358Z,2.10
2023-01-22T04:48:11.462Z,2.10
2023-01-22T04:50:38.455Z,2.10
2023-01-22T04:53:05.529Z,2.00
2023-01-22T04:55:32.444Z,1.98
2023-01-22T04:58:00.386Z,2.45
2023-01-22T05:00:28.874Z,2.15
2023-01-22T05:02:59.893Z,2.47
2023-01-22T05:05:27.867Z,2.30
2023-01-22T05:07:55.179Z,2.17
2023-01-22T05:10:22.273Z,1.70
2023-01-22T05:12:49.561Z,2.30
2023-01-22T05:15:23.934Z,2.30
2023-01-22T05:17:51.552Z,2.50
2023-01-22T05:20:18.803Z,2.20
2023-01-22T05:22:45.614Z,2.20
2023-01-22T05:25:12.302Z,1.90
2023-01-22T05:27:39.365Z,2.38
2023-01-22T05:30:08.552Z,2.22
2023-01-22T05:32:35.722Z,1.98
2023-01-22T05:35:02.878Z,1.70
2023-01-22T05:37:31.683Z,1.85
2023-01-22T05:39:58.355Z,1.80
2023-01-22T05:42:25.535Z,1.95
2023-01-22T05:44:52.440Z,1.80
2023-01-22T05:47:19.316Z,1.60
2023-01-22T05:49:46.063Z,1.88
2023-01-22T05:52:12.951Z,1.70
2023-01-22T05:54:40.158Z,1.73
2023-01-22T05:57:07.623Z,2.05
2023-01-22T05:59:34.979Z,2.15
2023-01-22T06:02:02.112Z,1.90
2023-01-22T06:04:29.066Z,2.10
2023-01-22T06:06:56.294Z,2.05
2023-01-22T06:09:23.366Z,2.15
2023-01-22T06:11:50.646Z,2.45
2023-01-22T06:14:17.391Z,2.47
2023-01-22T06:16:44.315Z,2.60
2023-01-22T06:19:11.502Z,2.40
2023-01-22T06:21:38.282Z,1.98
2023-01-22T06:24:05.203Z,2.40
2023-01-22T06:26:32.076Z,2.50
2023-01-22T06:28:58.817Z,2.40
2023-01-22T06:31:25.697Z,2.60
2023-01-22T06:33:53.391Z,2.65
2023-01-22T06:36:20.035Z,2.38
2023-01-22T06:38:46.735Z,2.58
2023-01-22T06:41:13.643Z,2.85
2023-01-22T06:43:40.333Z,2.60
2023-01-22T06:46:07.019Z,2.38
2023-01-22T06:48:33.843Z,2.40
2023-01-22T06:51:00.694Z,2.40
2023-01-22T06:53:27.860Z,2.60
2023-01-22T06:55:54.636Z,2.33
2023-01-22T06:58:21.683Z,3.10
2023-01-22T07:00:48.430Z,2.90
2023-01-22T07:03:15.278Z,3.00
2023-01-22T07:05:42.125Z,2.80
2023-01-22T07:08:08.879Z,2.60
2023-01-22T07:10:35.752Z,3.05
2023-01-22T07:13:04.401Z,2.72
2023-01-22T07:15:31.228Z,2.88
2023-01-22T07:17:57.913Z,3.03
2023-01-22T07:20:25.071Z,3.25
2023-01-22T07:22:52.060Z,2.88
2023-01-22T07:25:19.956Z,3.50
2023-01-22T07:27:46.807Z,3.45
2023-01-22T07:30:14.219Z,3.70
2023-01-22T07:32:40.964Z,3.45
2023-01-22T07:35:08.197Z,2.95
2023-01-22T07:37:36.404Z,2.42
2023-01-22T07:40:03.482Z,2.60
2023-01-22T07:42:30.279Z,2.40
2023-01-22T07:44:56.955Z,2.20
2023-01-22T07:47:23.649Z,2.75
2023-01-22T07:49:50.323Z,2.35
2023-01-22T07:52:16.988Z,2.15
2023-01-22T07:54:43.781Z,2.20
2023-01-22T07:57:15.485Z,2.30
2023-01-22T07:59:42.588Z,1.80
2023-01-22T08:02:14.688Z,2.17
2023-01-22T08:04:42.437Z,2.60
2023-01-22T08:07:16.688Z,2.15
2023-01-22T08:09:43.982Z,2.13
2023-01-22T08:12:10.753Z,2.22
2023-01-22T08:14:37.772Z,1.95
2023-01-22T08:17:04.603Z,1.52
2023-01-22T08:19:31.400Z,1.70
2023-01-22T08:21:58.115Z,1.92
2023-01-22T08:24:24.866Z,2.10
2023-01-22T08:26:51.765Z,1.98
2023-01-22T08:29:18.550Z,2.35
2023-01-22T08:31:45.718Z,2.00
2023-01-22T08:34:12.564Z,2.22
2023-01-22T08:36:39.296Z,2.17
2023-01-22T08:39:06.037Z,2.00
2023-01-22T08:41:32.824Z,2.28
2023-01-22T08:43:59.469Z,2.03
2023-01-22T08:46:26.139Z,1.90
2023-01-22T08:48:52.898Z,2.70
2023-01-22T08:51:20.073Z,2.60
2023-01-22T08:53:46.876Z,2.60
2023-01-22T08:56:13.552Z,2.30
2023-01-22T08:58:41.684Z,2.10
2023-01-22T09:01:08.440Z,2.17
2023-01-22T09:03:35.294Z,2.40
2023-01-22T09:06:02.018Z,2.85
2023-01-22T09:08:28.687Z,2.33
2023-01-22T09:10:55.630Z,3.05
2023-01-22T09:13:22.639Z,3.03
2023-01-22T09:15:49.629Z,2.90
2023-01-22T09:18:16.514Z,2.88
2023-01-22T09:20:45.329Z,2.50
2023-01-22T09:23:14.755Z,2.83
2023-01-22T09:25:42.451Z,3.00
2023-01-22T09:28:12.402Z,2.65
2023-01-22T09:30:41.076Z,3.20
2023-01-22T09:33:08.143Z,2.83
2023-01-22T09:35:35.041Z,3.08
2023-01-22T09:38:03.597Z,2.90
2023-01-22T09:40:37.317Z,3.85
2023-01-22T09:43:19.125Z,2.85
2023-01-22T09:45:46.082Z,2.55
2023-01-22T09:48:17.097Z,4.53
2023-01-22T09:50:44.234Z,4.30
2023-01-22T09:53:15.279Z,5.65
2023-01-22T09:55:47.934Z,6.00
2023-01-22T09:58:20.515Z,10.60
2023-01-22T10:01:10.869Z,9.23
2023-01-22T10:03:43.795Z,12.05
2023-01-22T10:06:15.899Z,8.30
2023-01-22T10:09:12.581Z,4.13
2023-01-22T10:11:40.323Z,4.68
2023-01-22T10:14:10.044Z,6.68
2023-01-22T10:16:37.481Z,7.63
2023-01-22T10:19:20.881Z,10.77
2023-01-22T10:21:59.211Z,9.70
2023-01-22T10:24:25.972Z,11.75
2023-01-22T10:26:59.043Z,7.28
2023-01-22T10:29:34.016Z,11.07
2023-01-22T10:32:03.314Z,6.60
2023-01-22T10:34:36.469Z,5.20
2023-01-22T10:37:15.788Z,7.10
2023-01-22T10:39:50.813Z,5.15
2023-01-22T10:42:23.284Z,4.30
2023-01-22T10:44:50.414Z,4.70
2023-01-22T10:47:27.279Z,5.38
2023-01-22T10:50:10.063Z,8.38
2023-01-22T10:52:39.959Z,5.72
2023-01-22T10:55:07.715Z,6.95
2023-01-22T10:57:36.108Z,4.80
2023-01-22T11:00:22.615Z,4.97
2023-01-22T11:02:54.960Z,4.80
2023-01-22T11:05:27.469Z,4.80
2023-01-22T11:07:59.247Z,5.70
2023-01-22T11:10:35.196Z,5.85
2023-01-22T11:13:13.899Z,5.13
2023-01-22T11:16:06.432Z,5.03
2023-01-22T11:18:39.984Z,4.82
2023-01-22T11:21:15.080Z,4.85
2023-01-22T11:23:57.571Z,5.47
2023-01-22T11:26:54.306Z,5.68
2023-01-22T11:30:04.735Z,5.07
2023-01-22T11:32:50.343Z,4.35
2023-01-22T11:36:12.351Z,4.15
2023-01-22T11:38:52.292Z,5.55
2023-01-22T11:41:45.246Z,6.68
2023-01-22T11:44:37.697Z,5.05
2023-01-22T11:47:30.208Z,5.47
2023-01-22T11:50:26.893Z,6.93
2023-01-22T11:53:24.245Z,6.10
2023-01-22T11:56:11.000Z,5.70
2023-01-22T11:59:22.806Z,5.70
2023-01-22T12:02:51.787Z,5.22
2023-01-22T12:05:59.934Z,7.57
2023-01-22T12:08:46.267Z,5.65
2023-01-22T12:11:53.976Z,4.57
2023-01-22T12:15:01.108Z,5.63
2023-01-22T12:17:53.176Z,4.55
2023-01-22T12:21:00.510Z,5.55
2023-01-22T12:24:04.040Z,4.63
2023-01-22T12:26:33.566Z,6.20
2023-01-22T12:29:29.660Z,5.90
2023-01-22T12:32:00.645Z,4.93
2023-01-22T12:34:37.936Z,5.28
2023-01-22T12:37:06.336Z,4.90
2023-01-22T12:39:45.784Z,5.43
2023-01-22T12:42:41.253Z,6.70
2023-01-22T12:45:25.114Z,7.05
2023-01-22T12:47:57.286Z,7.13
2023-01-22T12:50:26.904Z,6.32
2023-01-22T12:53:22.327Z,7.13
2023-01-22T12:56:10.454Z,7.10
2023-01-22T12:58:39.245Z,7.82
2023-01-22T13:01:33.753Z,7.43
2023-01-22T13:04:04.488Z,8.43
2023-01-22T13:06:44.148Z,8.63
2023-01-22T13:09:29.270Z,8.52
2023-01-22T13:11:56.007Z,10.82
2023-01-22T13:14:31.533Z,9.40
2023-01-22T13:17:04.218Z,8.07
2023-01-22T13:19:39.037Z,8.32
2023-01-22T13:22:08.526Z,8.48
2023-01-22T13:24:35.470Z,10.40
2023-01-22T13:27:03.458Z,9.75
2023-01-22T13:29:37.718Z,9.68
2023-01-22T13:32:06.947Z,9.10
2023-01-22T13:34:33.825Z,10.63
2023-01-22T13:37:00.561Z,8.88
2023-01-22T13:39:30.027Z,9.85
2023-01-22T13:42:01.221Z,10.35
2023-01-22T13:44:37.196Z,9.82
2023-01-22T13:47:04.253Z,8.85
2023-01-22T13:49:32.692Z,7.32
2023-01-22T13:52:05.399Z,7.70
2023-01-22T13:54:43.248Z,11.02
2023-01-22T13:57:14.743Z,8.70
2023-01-22T13:59:52.506Z,16.95
2023-01-22T14:02:35.141Z,8.10
2023-01-22T14:05:02.529Z,11.60
2023-01-22T14:07:32.201Z,23.92
2023-01-22T14:10:13.610Z,28.42
2023-01-22T14:12:40.275Z,16.70
2023-01-22T14:15:17.954Z,10.57
2023-01-22T14:17:45.051Z,20.08
2023-01-22T14:20:12.304Z,16.65
2023-01-22T14:22:39.028Z,19.60
2023-01-22T14:25:06.663Z,15.15
2023-01-22T14:27:43.330Z,10.45
2023-01-22T14:30:14.637Z,9.40
2023-01-22T14:32:42.976Z,9.80
2023-01-22T14:35:21.014Z,9.43
2023-01-22T14:37:48.008Z,22.45
2023-01-22T14:40:16.722Z,11.43
2023-01-22T14:42:43.859Z,8.73
2023-01-22T14:45:10.889Z,8.23
2023-01-22T14:47:37.652Z,9.80
2023-01-22T14:50:05.534Z,9.73
2023-01-22T14:52:32.572Z,11.85
2023-01-22T14:54:59.360Z,15.38
2023-01-22T14:57:26.460Z,12.25
2023-01-22T14:59:53.296Z,14.00
2023-01-22T15:02:20.081Z,12.13
2023-01-22T15:04:47.083Z,14.63
2023-01-22T15:07:14.039Z,12.70
2023-01-22T15:09:41.208Z,10.70
2023-01-22T15:12:08.463Z,8.77
2023-01-22T15:14:35.339Z,14.15
2023-01-22T15:17:02.078Z,16.08
2023-01-22T15:19:36.310Z,12.73
2023-01-22T15:22:07.454Z,8.85
2023-01-22T15:24:34.210Z,9.32
2023-01-22T15:27:00.987Z,9.25
2023-01-22T15:29:27.831Z,10.00
2023-01-22T15:31:54.622Z,9.50
2023-01-22T15:34:21.398Z,9.20
2023-01-22T15:36:48.270Z,8.63
2023-01-22T15:39:15.145Z,9.00
2023-01-22T15:41:42.092Z,9.02
2023-01-22T15:44:12.029Z,10.05
2023-01-22T15:46:44.597Z,12.35
2023-01-22T15:49:12.829Z,12.90
2023-01-22T15:51:41.140Z,9.05
2023-01-22T15:54:09.033Z,10.80
2023-01-22T15:56:37.950Z,9.35
2023-01-22T15:59:05.513Z,10.70
2023-01-22T16:01:32.998Z,14.85
2023-01-22T16:04:01.251Z,15.00
2023-01-22T16:06:29.664Z,11.20
2023-01-22T16:08:58.113Z,9.55
2023-01-22T16:11:28.781Z,10.38
2023-01-22T16:13:59.965Z,9.90
2023-01-22T16:16:32.710Z,8.02
2023-01-22T16:19:06.256Z,9.48
2023-01-22T16:21:33.057Z,7.93
2023-01-22T16:24:01.678Z,8.02
2023-01-22T16:26:31.485Z,9.02
2023-01-22T16:28:59.787Z,8.68
2023-01-22T16:31:30.656Z,15.70
2023-01-22T16:33:59.607Z,10.48
2023-01-22T16:36:29.327Z,11.07
2023-01-22T16:38:56.405Z,10.18
2023-01-22T16:41:28.789Z,7.93
2023-01-22T16:43:56.886Z,7.07
2023-01-22T16:46:26.188Z,7.80
2023-01-22T16:48:58.252Z,7.97
2023-01-22T16:51:26.422Z,7.47
2023-01-22T16:53:53.458Z,24.52
2023-01-22T16:56:20.204Z,17.67
2023-01-22T16:58:46.828Z,14.10
2023-01-22T17:01:14.421Z,10.75
2023-01-22T17:03:42.119Z,16.08
2023-01-22T17:06:21.059Z,20.08
2023-01-22T17:08:48.517Z,46.92
2023-01-22T17:11:16.925Z,9.32
2023-01-22T17:13:44.254Z,8.63
2023-01-22T17:16:11.855Z,8.13
2023-01-22T17:18:38.981Z,7.82
2023-01-22T17:21:06.882Z,11.32
2023-01-22T17:23:33.964Z,6.72
2023-01-22T17:26:05.464Z,13.27
2023-01-22T17:28:32.404Z,10.13
2023-01-22T17:31:02.769Z,15.05
2023-01-22T17:33:29.412Z,10.07
2023-01-22T17:35:58.962Z,9.00
2023-01-22T17:38:25.891Z,8.57
2023-01-22T17:40:52.637Z,16.35
2023-01-22T17:43:22.965Z,13.98
2023-01-22T17:45:50.428Z,10.27
2023-01-22T17:48:17.219Z,16.85
2023-01-22T17:50:44.116Z,7.75
2023-01-22T17:53:10.813Z,9.18
2023-01-22T17:55:38.238Z,13.13
2023-01-22T17:58:05.217Z,14.90
2023-01-22T18:00:32.106Z,10.23
2023-01-22T18:02:58.821Z,9.45
2023-01-22T18:05:29.460Z,8.63
2023-01-22T18:07:56.244Z,7.53
2023-01-22T18:10:23.080Z,8.23
2023-01-22T18:12:49.992Z,8.10
2023-01-22T18:15:17.433Z,8.20
2023-01-22T18:17:44.381Z,8.55
2023-01-22T18:20:11.525Z,7.43
2023-01-22T18:22:38.292Z,7.93
2023-01-22T18:25:05.463Z,8.02
2023-01-22T18:27:35.950Z,10.48
2023-01-22T18:30:02.940Z,10.15
2023-01-22T18:32:29.696Z,10.90
2023-01-22T18:34:56.597Z,9.48
2023-01-22T18:37:23.266Z,10.80
2023-01-22T18:39:49.983Z,9.45
2023-01-22T18:42:16.792Z,8.32
2023-01-22T18:44:43.430Z,9.27
2023-01-22T18:47:11.657Z,9.23
2023-01-22T18:49:38.354Z,7.93
2023-01-22T18:52:05.310Z,12.98
2023-01-22T18:54:33.139Z,9.80
2023-01-22T18:56:59.933Z,20.92
2023-01-22T18:59:26.658Z,9.65
2023-01-22T19:01:58.076Z,13.68
2023-01-22T19:04:25.492Z,27.75
2023-01-22T19:06:53.871Z,8.18
2023-01-22T19:09:23.671Z,14.32
2023-01-22T19:11:52.529Z,33.85
2023-01-22T19:14:20.670Z,17.17
2023-01-22T19:16:51.008Z,9.10
2023-01-22T19:19:18.014Z,8.75
2023-01-22T19:21:49.219Z,10.00
2023-01-22T19:24:17.553Z,9.10
2023-01-22T19:26:46.636Z,10.68
2023-01-22T19:29:17.651Z,9.90
2023-01-22T19:31:46.671Z,9.10
2023-01-22T19:34:16.810Z,11.57
2023-01-22T19:36:43.434Z,8.25
2023-01-22T19:39:13.141Z,10.68
2023-01-22T19:41:40.704Z,11.90
2023-01-22T19:44:07.613Z,9.15
2023-01-22T19:46:35.115Z,15.85
2023-01-22T19:49:01.954Z,8.30
2023-01-22T19:51:30.959Z,9.90
2023-01-22T19:54:00.239Z,10.07
2023-01-22T19:56:29.670Z,15.95
2023-01-22T19:59:03.299Z,10.02
2023-01-22T20:01:30.398Z,14.40
2023-01-22T20:03:57.259Z,10.82
2023-01-22T20:06:25.400Z,11.30
2023-01-22T20:08:52.880Z,11.57
2023-01-22T20:11:19.698Z,10.95
2023-01-22T20:13:47.799Z,10.75
2023-01-22T20:16:22.962Z,9.75
2023-01-22T20:18:50.585Z,8.27
2023-01-22T20:21:18.576Z,13.48
2023-01-22T20:23:47.376Z,8.90
2023-01-22T20:26:15.008Z,7.50
2023-01-22T20:28:41.813Z,7.80
2023-01-22T20:31:12.970Z,8.80
2023-01-22T20:33:39.820Z,12.55
2023-01-22T20:36:09.899Z,10.30
2023-01-22T20:38:37.312Z,8.95
2023-01-22T20:41:09.302Z,9.52
2023-01-22T20:43:39.092Z,9.50
2023-01-22T20:46:08.482Z,8.13
2023-01-22T20:48:35.519Z,8.38
2023-01-22T20:51:02.528Z,9.35
2023-01-22T20:53:30.260Z,9.32
2023-01-22T20:56:06.180Z,9.88
2023-01-22T20:58:33.597Z,10.25
2023-01-22T21:01:09.098Z,9.77
2023-01-22T21:03:35.942Z,10.05
2023-01-22T21:06:07.824Z,9.52
2023-01-22T21:08:35.236Z,10.45
2023-01-22T21:11:06.143Z,9.05
2023-01-22T21:13:33.048Z,9.50
2023-01-22T21:16:13.809Z,9.23
2023-01-22T21:18:43.878Z,9.45
2023-01-22T21:21:17.096Z,9.52
2023-01-22T21:23:44.264Z,10.17
2023-01-22T21:26:13.006Z,9.98
2023-01-22T21:28:45.511Z,9.65
2023-01-22T21:31:14.438Z,9.05
2023-01-22T21:33:42.059Z,11.73
2023-01-22T21:36:10.179Z,9.73
2023-01-22T21:38:40.521Z,9.52
2023-01-22T21:41:09.830Z,9.10
2023-01-22T21:43:55.827Z,9.30
2023-01-22T21:46:22.587Z,9.57
2023-01-22T21:48:49.860Z,10.52
2023-01-22T21:51:20.500Z,10.10
2023-01-22T21:53:47.271Z,11.10
2023-01-22T21:56:14.058Z,11.10
2023-01-22T21:58:45.341Z,11.70
2023-01-22T22:01:18.652Z,11.05
2023-01-22T22:03:45.372Z,11.90
2023-01-22T22:06:13.582Z,15.57
2023-01-22T22:08:43.462Z,12.55
2023-01-22T22:11:12.994Z,12.00
2023-01-22T22:13:40.407Z,12.48
2023-01-22T22:16:08.651Z,12.35
2023-01-22T22:18:35.951Z,12.85
2023-01-22T22:21:05.161Z,11.98
2023-01-22T22:23:32.416Z,11.52
2023-01-22T22:25:59.328Z,11.23
2023-01-22T22:28:26.043Z,11.02
2023-01-22T22:30:53.152Z,11.23
2023-01-22T22:33:20.038Z,11.80
2023-01-22T22:35:47.816Z,13.13
2023-01-22T22:38:15.147Z,13.05
2023-01-22T22:40:42.092Z,12.38
2023-01-22T22:43:09.366Z,15.75
2023-01-22T22:45:39.035Z,14.00
2023-01-22T22:48:05.885Z,11.05
2023-01-22T22:50:32.756Z,11.90
2023-01-22T22:52:59.642Z,10.65
2023-01-22T22:55:28.915Z,10.68
2023-01-22T22:57:55.688Z,10.30
2023-01-22T23:00:22.702Z,10.77
2023-01-22T23:02:49.551Z,10.57
2023-01-22T23:05:16.453Z,10.20
2023-01-22T23:07:43.299Z,9.65
2023-01-22T23:10:29.034Z,9.55
2023-01-22T23:13:01.186Z,9.68
2023-01-22T23:15:30.071Z,9.93
2023-01-22T23:17:58.102Z,10.20
2023-01-22T23:20:26.472Z,9.88
2023-01-22T23:22:58.145Z,9.85
2023-01-22T23:25:25.749Z,10.00
2023-01-22T23:27:52.757Z,9.40
2023-01-22T23:30:20.003Z,9.70
2023-01-22T23:32:46.863Z,10.93
2023-01-22T23:35:13.643Z,8.77
2023-01-22T23:37:40.379Z,8.82
2023-01-22T23:40:07.785Z,9.85
2023-01-22T23:42:34.539Z,9.40
2023-01-22T23:45:01.280Z,9.18
2023-01-22T23:47:28.155Z,9.32
2023-01-22T23:49:54.776Z,8.63
2023-01-22T23:52:21.580Z,9.90
2023-01-22T23:54:48.649Z,9.45
2023-01-22T23:57:15.397Z,9.05
2023-01-22T23:59:42.180Z,9.57
